High Blantyre, United Kingdom
Current Conditions -  °F | °C
As of 8:20 AM on Saturday 20 Dec 2014 (Local Time) from EGPF Reporting Station
Light Rain Light Rain  
Wind Chill: 33°   Ceiling: 2300
Heat Index: 41°   Visibility: 6mi
Dew Point: 37°   Wind: 14mph
Humidity: 87%   Direction: 290°WNW
Pressure: 30"   Gusts: NA
Location:  55.78°N, 4.1°W
Report Text: EGPF 200820Z AUTO 29012KT 9999 -RA FEW010 BKN023 BKN038 05/03 Q1016 RERA
Loading
Personal Weather Stations






























Interactive Weather Map New forecast layout! Learn more

10-Day Weather Forecast

Advertisements
Track Severe Weather on mobile